Phenix Legend — JD3064 — position and weather

sailwx.info

Track history (hours):
 
Tides and Currents Weather Stations Pressure Air Temp Water Temp Dewpoint Dewpoint Depression Visibility Wind Speed Wind Dir Waves Ship Positions

Phenix Legend

Last reported at 2017-Nov-19 00:39 UTC. Time now 2017-Nov-22 16:39 UTC.
Position N 34°35' E 134°51'.

Length 96 m; draft 5.2 m.

Type: Tanker. MMSI: 431001427.

Date/timePositionNaut miles runAvg speedWind from/ knotsBaromVisibWave heightAir tempDewpointWater temp
2017-Nov-19 00:39N 34°35' E 134°51'216.6
2017-Nov-19 00:30N 34°36' E 134°53'815.9
2017-Nov-19 00:00N 34°36' E 135°03'714.5
2017-Nov-18 23:30N 34°34' E 135°11'612.8
2017-Nov-18 23:00N 34°33' E 135°19'0 0.3
2017-Nov-18 22:24N 34°32' E 135°19'0 0.0
2017-Nov-18 22:00N 34°32' E 135°19'0 0.0
2017-Nov-18 21:24N 34°32' E 135°19'0 0.0
2017-Nov-18 21:00N 34°32' E 135°19'0 0.0
2017-Nov-18 20:30N 34°32' E 135°19'0 0.0
2017-Nov-18 19:54N 34°32' E 135°19'0 0.0
2017-Nov-18 19:30N 34°32' E 135°19'0 0.0
2017-Nov-18 19:00N 34°32' E 135°19'0 0.0
2017-Nov-18 18:30N 34°32' E 135°19'0 0.0
2017-Nov-18 18:00N 34°32' E 135°19'0 0.0
2017-Nov-18 17:24N 34°32' E 135°19'0 0.1
2017-Nov-18 17:00N 34°32' E 135°19'0 0.0
2017-Nov-18 16:30N 34°32' E 135°19'0 0.0
2017-Nov-18 16:00N 34°32' E 135°19'0 0.0
2017-Nov-18 15:30N 34°32' E 135°19'0 0.0
2017-Nov-18 14:48N 34°32' E 135°19'0 0.0
2017-Nov-18 14:24N 34°32' E 135°19'0 0.0
2017-Nov-18 13:54N 34°32' E 135°19'0 0.0
2017-Nov-18 13:30N 34°32' E 135°19'0 0.0
2017-Nov-18 13:00N 34°32' E 135°19'0 0.0
2017-Nov-18 12:30N 34°32' E 135°19'0 0.0
2017-Nov-18 11:54N 34°32' E 135°19'0 0.0
2017-Nov-18 11:30N 34°32' E 135°19'0 0.0
2017-Nov-18 11:00N 34°32' E 135°19'0 0.0
2017-Nov-18 09:54N 34°32' E 135°19'0 0.0
2017-Nov-18 09:24N 34°32' E 135°19'0 0.0
2017-Nov-18 09:00N 34°32' E 135°19'0 0.0
2017-Nov-18 08:12N 34°33' E 135°19'0 0.2
2017-Nov-18 08:00N 34°33' E 135°19'0 0.0
2017-Nov-18 07:30N 34°33' E 135°19'0 0.0
2017-Nov-18 07:00N 34°32' E 135°19'0 0.1
2017-Nov-18 06:30N 34°32' E 135°19'1 1.1
2017-Nov-18 06:00N 34°33' E 135°20'5 9.2
2017-Nov-18 05:30N 34°33' E 135°25'0 0.0
2017-Nov-17 23:24N 34°33' E 135°25'1 2.7
2017-Nov-17 22:59N 34°33' E 135°24'4 7.7
2017-Nov-17 22:30N 34°32' E 135°20'1 0.4
2017-Nov-17 21:19N 34°32' E 135°20'0 0.0
2017-Nov-17 20:55N 34°32' E 135°20'0 0.0
2017-Nov-17 20:25N 34°32' E 135°20'0 0.0
2017-Nov-17 19:55N 34°32' E 135°20'0 0.0
2017-Nov-17 19:25N 34°32' E 135°20'0 0.0
2017-Nov-17 18:55N 34°32' E 135°20'0 0.0
2017-Nov-17 18:25N 34°32' E 135°20'0 0.2
2017-Nov-17 18:00N 34°32' E 135°20'612.8
2017-Nov-17 17:30N 34°34' E 135°12'816.2
2017-Nov-17 17:00N 34°36' E 135°03'816.4
2017-Nov-17 16:30N 34°35' E 134°53'  
2017-Nov-14 07:51N 34°35' E 134°51'616.5
2017-Nov-14 07:27N 34°37' E 134°58'715.2
2017-Nov-14 07:00N 34°36' E 135°06'714.3
2017-Nov-14 06:30N 34°35' E 135°15'714.3
2017-Nov-14 06:00N 34°34' E 135°23'2 0.3
2017-Nov-13 22:55N 34°33' E 135°25'1 1.7
2017-Nov-13 22:30N 34°33' E 135°25'4 7.7
2017-Nov-13 22:00N 34°33' E 135°20'  
2017-Nov-10 08:32N 34°41' E 134°48'013.4
2017-Nov-10 08:30N 34°40' E 134°48'712.7
2017-Nov-10 07:59N 34°37' E 134°55'714.4
2017-Nov-10 07:30N 34°37' E 135°03'714.3
2017-Nov-10 07:00N 34°35' E 135°12'714.3
2017-Nov-10 06:30N 34°34' E 135°21'4 8.0
2017-Nov-10 06:00N 34°33' E 135°25'0 0.0
2017-Nov-09 22:37N 34°33' E 135°25'0 1.4
2017-Nov-09 22:30N 34°33' E 135°25'3 5.0
2017-Nov-09 22:00N 34°33' E 135°22'611.5
2017-Nov-09 21:30N 34°33' E 135°15'510.8
2017-Nov-09 21:00N 34°38' E 135°11'2 4.2
2017-Nov-09 20:28N 34°40' E 135°11'0 0.0
2017-Nov-09 19:52N 34°40' E 135°11'0 0.0
2017-Nov-09 19:28N 34°40' E 135°11'0 0.0
2017-Nov-09 18:58N 34°40' E 135°11'0 0.0
2017-Nov-09 18:28N 34°40' E 135°11'0 0.0
2017-Nov-09 17:58N 34°40' E 135°11'0 0.0
2017-Nov-09 17:28N 34°40' E 135°11'0 0.0
2017-Nov-09 16:58N 34°40' E 135°11'0 0.0
2017-Nov-09 16:28N 34°40' E 135°11'0 0.0
2017-Nov-09 15:58N 34°40' E 135°11'0 0.0
2017-Nov-09 15:28N 34°40' E 135°11'0 0.0
2017-Nov-09 14:58N 34°40' E 135°11'0 0.0
2017-Nov-09 14:28N 34°40' E 135°11'0 0.0
2017-Nov-09 13:52N 34°40' E 135°11'0 0.0
2017-Nov-09 13:28N 34°40' E 135°11'0 0.0
2017-Nov-09 12:58N 34°40' E 135°11'0 0.0
2017-Nov-09 12:28N 34°40' E 135°11'0 0.0
2017-Nov-09 11:52N 34°40' E 135°11'0 0.0
2017-Nov-09 11:22N 34°40' E 135°11'0 0.0
2017-Nov-09 10:58N 34°40' E 135°11'0 0.0
2017-Nov-09 10:28N 34°40' E 135°11'0 0.0
2017-Nov-09 09:58N 34°40' E 135°11'0 0.0
2017-Nov-09 09:28N 34°40' E 135°11'0 0.0
2017-Nov-09 08:52N 34°40' E 135°11'0 0.0
2017-Nov-09 08:28N 34°40' E 135°11'0 0.0
2017-Nov-09 07:58N 34°40' E 135°11'0 0.0
2017-Nov-09 07:22N 34°40' E 135°11'0 0.0
2017-Nov-09 06:46N 34°40' E 135°11'0 0.0
2017-Nov-09 06:28N 34°40' E 135°11'0 0.0
2017-Nov-09 05:52N 34°40' E 135°11'0 0.0
2017-Nov-09 05:28N 34°40' E 135°11'0 0.0
2017-Nov-09 04:58N 34°40' E 135°11'0 0.0
2017-Nov-09 04:28N 34°40' E 135°11'0 0.0
2017-Nov-09 03:58N 34°40' E 135°11'0 0.0
2017-Nov-09 03:28N 34°40' E 135°11'0 0.0
2017-Nov-09 02:58N 34°40' E 135°11'0 0.0
2017-Nov-09 02:22N 34°40' E 135°11'0 0.0
2017-Nov-09 01:58N 34°40' E 135°11'0 0.0
2017-Nov-09 01:22N 34°40' E 135°11'0 0.0
2017-Nov-09 00:58N 34°40' E 135°11'  
Track history (hours):
 
Tides and Currents Weather Stations Pressure Air Temp Water Temp Dewpoint Dewpoint Depression Visibility Wind Speed Wind Dir Waves Ship Positions

Phenix Legend

Last reported at 2017-Nov-19 00:39 UTC. Time now 2017-Nov-22 16:39 UTC.
Position N 34°35' E 134°51'.

Length 96 m; draft 5.2 m.

Type: Tanker. MMSI: 431001427.

Date/timePositionNaut miles runAvg speedWind from/ knotsBaromVisibWave heightAir tempDewpointWater temp
2017-Nov-19 00:39N 34°35' E 134°51'216.6
2017-Nov-19 00:30N 34°36' E 134°53'815.9
2017-Nov-19 00:00N 34°36' E 135°03'714.5
2017-Nov-18 23:30N 34°34' E 135°11'612.8
2017-Nov-18 23:00N 34°33' E 135°19'0 0.3
2017-Nov-18 22:24N 34°32' E 135°19'0 0.0
2017-Nov-18 22:00N 34°32' E 135°19'0 0.0
2017-Nov-18 21:24N 34°32' E 135°19'0 0.0
2017-Nov-18 21:00N 34°32' E 135°19'0 0.0
2017-Nov-18 20:30N 34°32' E 135°19'0 0.0
2017-Nov-18 19:54N 34°32' E 135°19'0 0.0
2017-Nov-18 19:30N 34°32' E 135°19'0 0.0
2017-Nov-18 19:00N 34°32' E 135°19'0 0.0
2017-Nov-18 18:30N 34°32' E 135°19'0 0.0
2017-Nov-18 18:00N 34°32' E 135°19'0 0.0
2017-Nov-18 17:24N 34°32' E 135°19'0 0.1
2017-Nov-18 17:00N 34°32' E 135°19'0 0.0
2017-Nov-18 16:30N 34°32' E 135°19'0 0.0
2017-Nov-18 16:00N 34°32' E 135°19'0 0.0
2017-Nov-18 15:30N 34°32' E 135°19'0 0.0
2017-Nov-18 14:48N 34°32' E 135°19'0 0.0
2017-Nov-18 14:24N 34°32' E 135°19'0 0.0
2017-Nov-18 13:54N 34°32' E 135°19'0 0.0
2017-Nov-18 13:30N 34°32' E 135°19'0 0.0
2017-Nov-18 13:00N 34°32' E 135°19'0 0.0
2017-Nov-18 12:30N 34°32' E 135°19'0 0.0
2017-Nov-18 11:54N 34°32' E 135°19'0 0.0
2017-Nov-18 11:30N 34°32' E 135°19'0 0.0
2017-Nov-18 11:00N 34°32' E 135°19'0 0.0
2017-Nov-18 09:54N 34°32' E 135°19'0 0.0
2017-Nov-18 09:24N 34°32' E 135°19'0 0.0
2017-Nov-18 09:00N 34°32' E 135°19'0 0.0
2017-Nov-18 08:12N 34°33' E 135°19'0 0.2
2017-Nov-18 08:00N 34°33' E 135°19'0 0.0
2017-Nov-18 07:30N 34°33' E 135°19'0 0.0
2017-Nov-18 07:00N 34°32' E 135°19'0 0.1
2017-Nov-18 06:30N 34°32' E 135°19'1 1.1
2017-Nov-18 06:00N 34°33' E 135°20'5 9.2
2017-Nov-18 05:30N 34°33' E 135°25'0 0.0
2017-Nov-17 23:24N 34°33' E 135°25'1 2.7
2017-Nov-17 22:59N 34°33' E 135°24'4 7.7
2017-Nov-17 22:30N 34°32' E 135°20'1 0.4
2017-Nov-17 21:19N 34°32' E 135°20'0 0.0
2017-Nov-17 20:55N 34°32' E 135°20'0 0.0
2017-Nov-17 20:25N 34°32' E 135°20'0 0.0
2017-Nov-17 19:55N 34°32' E 135°20'0 0.0
2017-Nov-17 19:25N 34°32' E 135°20'0 0.0
2017-Nov-17 18:55N 34°32' E 135°20'0 0.0
2017-Nov-17 18:25N 34°32' E 135°20'0 0.2
2017-Nov-17 18:00N 34°32' E 135°20'612.8
2017-Nov-17 17:30N 34°34' E 135°12'816.2
2017-Nov-17 17:00N 34°36' E 135°03'816.4
2017-Nov-17 16:30N 34°35' E 134°53'  
2017-Nov-14 07:51N 34°35' E 134°51'616.5
2017-Nov-14 07:27N 34°37' E 134°58'715.2
2017-Nov-14 07:00N 34°36' E 135°06'714.3
2017-Nov-14 06:30N 34°35' E 135°15'714.3
2017-Nov-14 06:00N 34°34' E 135°23'2 0.3
2017-Nov-13 22:55N 34°33' E 135°25'1 1.7
2017-Nov-13 22:30N 34°33' E 135°25'4 7.7
2017-Nov-13 22:00N 34°33' E 135°20'  
2017-Nov-10 08:32N 34°41' E 134°48'013.4
2017-Nov-10 08:30N 34°40' E 134°48'712.7
2017-Nov-10 07:59N 34°37' E 134°55'714.4
2017-Nov-10 07:30N 34°37' E 135°03'714.3
2017-Nov-10 07:00N 34°35' E 135°12'714.3
2017-Nov-10 06:30N 34°34' E 135°21'4 8.0
2017-Nov-10 06:00N 34°33' E 135°25'0 0.0
2017-Nov-09 22:37N 34°33' E 135°25'0 1.4
2017-Nov-09 22:30N 34°33' E 135°25'3 5.0
2017-Nov-09 22:00N 34°33' E 135°22'611.5
2017-Nov-09 21:30N 34°33' E 135°15'510.8
2017-Nov-09 21:00N 34°38' E 135°11'2 4.2
2017-Nov-09 20:28N 34°40' E 135°11'0 0.0
2017-Nov-09 19:52N 34°40' E 135°11'0 0.0
2017-Nov-09 19:28N 34°40' E 135°11'0 0.0
2017-Nov-09 18:58N 34°40' E 135°11'0 0.0
2017-Nov-09 18:28N 34°40' E 135°11'0 0.0
2017-Nov-09 17:58N 34°40' E 135°11'0 0.0
2017-Nov-09 17:28N 34°40' E 135°11'0 0.0
2017-Nov-09 16:58N 34°40' E 135°11'0 0.0
2017-Nov-09 16:28N 34°40' E 135°11'0 0.0
2017-Nov-09 15:58N 34°40' E 135°11'0 0.0
2017-Nov-09 15:28N 34°40' E 135°11'0 0.0
2017-Nov-09 14:58N 34°40' E 135°11'0 0.0
2017-Nov-09 14:28N 34°40' E 135°11'0 0.0
2017-Nov-09 13:52N 34°40' E 135°11'0 0.0
2017-Nov-09 13:28N 34°40' E 135°11'0 0.0
2017-Nov-09 12:58N 34°40' E 135°11'0 0.0
2017-Nov-09 12:28N 34°40' E 135°11'0 0.0
2017-Nov-09 11:52N 34°40' E 135°11'0 0.0
2017-Nov-09 11:22N 34°40' E 135°11'0 0.0
2017-Nov-09 10:58N 34°40' E 135°11'0 0.0
2017-Nov-09 10:28N 34°40' E 135°11'0 0.0
2017-Nov-09 09:58N 34°40' E 135°11'0 0.0
2017-Nov-09 09:28N 34°40' E 135°11'0 0.0
2017-Nov-09 08:52N 34°40' E 135°11'0 0.0
2017-Nov-09 08:28N 34°40' E 135°11'0 0.0
2017-Nov-09 07:58N 34°40' E 135°11'0 0.0
2017-Nov-09 07:22N 34°40' E 135°11'0 0.0
2017-Nov-09 06:46N 34°40' E 135°11'0 0.0
2017-Nov-09 06:28N 34°40' E 135°11'0 0.0
2017-Nov-09 05:52N 34°40' E 135°11'0 0.0
2017-Nov-09 05:28N 34°40' E 135°11'0 0.0
2017-Nov-09 04:58N 34°40' E 135°11'0 0.0
2017-Nov-09 04:28N 34°40' E 135°11'0 0.0
2017-Nov-09 03:58N 34°40' E 135°11'0 0.0
2017-Nov-09 03:28N 34°40' E 135°11'0 0.0
2017-Nov-09 02:58N 34°40' E 135°11'0 0.0
2017-Nov-09 02:22N 34°40' E 135°11'0 0.0
2017-Nov-09 01:58N 34°40' E 135°11'0 0.0
2017-Nov-09 01:22N 34°40' E 135°11'0 0.0
2017-Nov-09 00:58N 34°40' E 135°11'  

Dump ship's entire track history